createdAt,value
2019-02-28T00:01:25.986Z,25.60
2019-02-28T00:03:57.965Z,29.83
2019-02-28T00:06:28.565Z,31.40
2019-02-28T00:08:59.301Z,28.73
2019-02-28T00:11:30.250Z,28.43
2019-02-28T00:14:02.015Z,30.17
2019-02-28T00:16:35.657Z,27.77
2019-02-28T00:19:04.157Z,31.50
2019-02-28T00:21:34.230Z,30.90
2019-02-28T00:24:07.113Z,33.23
2019-02-28T00:26:37.284Z,29.13
2019-02-28T00:29:09.489Z,30.63
2019-02-28T00:31:40.675Z,30.23
2019-02-28T00:34:12.778Z,29.33
2019-02-28T00:36:44.401Z,30.37
2019-02-28T00:39:15.346Z,32.53
2019-02-28T00:41:46.383Z,30.00
2019-02-28T00:44:16.279Z,32.33
2019-02-28T00:46:48.008Z,31.90
2019-02-28T00:49:21.297Z,29.57
2019-02-28T00:51:51.877Z,28.43
2019-02-28T00:54:21.661Z,28.40
2019-02-28T00:56:52.475Z,27.77
2019-02-28T00:59:23.381Z,32.13
2019-02-28T01:01:53.465Z,32.67
2019-02-28T01:04:24.328Z,27.60
2019-02-28T01:06:54.413Z,35.23
2019-02-28T01:09:27.112Z,30.03
2019-02-28T01:11:57.375Z,32.10
2019-02-28T01:14:28.289Z,30.03
2019-02-28T01:16:59.038Z,33.40
2019-02-28T01:19:32.429Z,30.80
2019-02-28T01:22:02.542Z,33.47
2019-02-28T01:27:23.533Z,32.10
2019-02-28T01:29:53.333Z,29.37
2019-02-28T01:32:24.365Z,32.40
2019-02-28T01:34:56.146Z,33.23
2019-02-28T01:37:26.198Z,31.87
2019-02-28T01:39:57.357Z,33.10
2019-02-28T01:42:27.240Z,35.37
2019-02-28T01:44:57.947Z,36.63
2019-02-28T01:47:29.281Z,36.13
2019-02-28T01:50:00.424Z,36.30
2019-02-28T01:52:30.622Z,38.47
2019-02-28T01:55:01.889Z,34.47
2019-02-28T01:57:35.229Z,35.13
2019-02-28T02:00:11.489Z,38.40
2019-02-28T02:02:42.713Z,38.07
2019-02-28T02:05:16.869Z,40.73
2019-02-28T02:07:46.742Z,38.70
2019-02-28T02:10:22.739Z,39.00
2019-02-28T02:12:52.582Z,38.20
2019-02-28T02:15:22.313Z,32.27
2019-02-28T02:17:52.133Z,37.27
2019-02-28T02:20:23.391Z,45.23
2019-02-28T02:22:54.197Z,38.60
2019-02-28T02:25:25.878Z,39.03
2019-02-28T02:27:56.805Z,42.83
2019-02-28T02:30:27.518Z,42.73
2019-02-28T02:32:58.458Z,42.47
2019-02-28T02:35:28.324Z,37.53
2019-02-28T02:38:03.615Z,39.20
2019-02-28T02:40:31.721Z,41.67
2019-02-28T02:43:02.551Z,38.70
2019-02-28T02:45:32.341Z,42.17
2019-02-28T02:48:05.198Z,39.13
2019-02-28T02:50:36.009Z,41.93
2019-02-28T02:53:07.302Z,42.87
2019-02-28T02:55:38.722Z,47.10
2019-02-28T02:58:10.548Z,39.10
2019-02-28T03:00:41.443Z,42.47
2019-02-28T03:03:13.883Z,41.63
2019-02-28T03:05:43.856Z,42.27
2019-02-28T03:08:14.578Z,43.97
2019-02-28T03:10:45.601Z,43.43
2019-02-28T03:13:15.760Z,40.23
2019-02-28T03:15:47.227Z,45.30
2019-02-28T03:18:20.467Z,38.70
2019-02-28T03:20:51.798Z,48.73
2019-02-28T03:23:22.555Z,40.73
2019-02-28T03:25:54.471Z,43.90
2019-02-28T03:28:28.080Z,41.77
2019-02-28T03:31:11.344Z,52.50
2019-02-28T03:33:31.341Z,43.53
2019-02-28T03:36:01.246Z,47.17
2019-02-28T03:38:31.318Z,49.10
2019-02-28T03:41:02.793Z,49.37
2019-02-28T03:43:34.105Z,46.80
2019-02-28T03:46:06.270Z,47.77
2019-02-28T03:48:36.329Z,43.33
2019-02-28T03:51:06.181Z,41.60
2019-02-28T03:53:39.622Z,65.87
2019-02-28T03:56:14.286Z,48.97
2019-02-28T03:58:43.295Z,48.03
2019-02-28T04:01:13.475Z,45.77
2019-02-28T04:03:44.697Z,38.93
2019-02-28T04:06:14.858Z,46.23
2019-02-28T04:08:45.942Z,55.37
2019-02-28T04:11:16.233Z,48.33
2019-02-28T04:13:52.359Z,49.33
2019-02-28T04:16:20.815Z,53.17
2019-02-28T04:18:51.838Z,51.73
2019-02-28T04:21:22.561Z,53.73
2019-02-28T04:23:52.322Z,52.17
2019-02-28T04:26:22.408Z,51.70
2019-02-28T04:28:54.877Z,51.60
2019-02-28T04:31:26.364Z,55.67
2019-02-28T04:33:56.547Z,70.23
2019-02-28T04:36:28.090Z,66.37
2019-02-28T04:38:58.950Z,65.30
2019-02-28T04:41:32.494Z,54.80
2019-02-28T04:44:02.373Z,53.77
2019-02-28T04:46:32.639Z,51.47
2019-02-28T04:49:04.407Z,59.90
2019-02-28T04:51:33.673Z,50.90
2019-02-28T04:54:05.334Z,56.57
2019-02-28T04:56:35.937Z,53.13
2019-02-28T04:59:07.273Z,49.97
2019-02-28T05:01:37.176Z,55.80
2019-02-28T05:04:11.279Z,54.03
2019-02-28T05:06:42.450Z,53.57
2019-02-28T05:09:14.470Z,62.13
2019-02-28T05:11:45.781Z,58.00
2019-02-28T05:14:16.407Z,55.93
2019-02-28T05:16:47.517Z,58.10
2019-02-28T05:19:20.330Z,60.13
2019-02-28T05:21:50.601Z,59.43
2019-02-28T05:24:24.325Z,65.07
2019-02-28T05:26:54.181Z,55.10
2019-02-28T05:29:24.260Z,59.13
2019-02-28T05:31:54.162Z,58.37
2019-02-28T05:34:24.903Z,62.50
2019-02-28T05:36:55.625Z,63.47
2019-02-28T05:39:28.243Z,61.07
2019-02-28T05:41:58.526Z,69.03
2019-02-28T05:44:28.430Z,62.33
2019-02-28T05:46:59.887Z,61.40
2019-02-28T05:49:30.574Z,62.67
2019-02-28T05:52:03.782Z,60.73
2019-02-28T05:54:36.713Z,66.07
2019-02-28T05:57:08.264Z,69.30
2019-02-28T05:59:39.053Z,68.37
2019-02-28T06:02:08.949Z,85.20
2019-02-28T06:04:40.385Z,70.00
2019-02-28T06:07:11.625Z,75.83
2019-02-28T06:09:41.319Z,66.70
2019-02-28T06:12:11.506Z,67.07
2019-02-28T06:14:41.397Z,71.60
2019-02-28T06:17:12.314Z,71.97
2019-02-28T06:19:44.245Z,76.83
2019-02-28T06:22:14.282Z,73.87
2019-02-28T06:24:45.931Z,55.17
2019-02-28T06:27:16.655Z,70.00
2019-02-28T06:29:46.453Z,71.87
2019-02-28T06:32:16.228Z,72.43
2019-02-28T06:34:46.294Z,70.17
2019-02-28T06:37:16.419Z,71.17
2019-02-28T06:39:47.438Z,75.13
2019-02-28T06:42:18.179Z,80.50
2019-02-28T06:44:50.573Z,73.60
2019-02-28T06:47:20.326Z,72.73
2019-02-28T06:49:50.105Z,77.03
2019-02-28T06:52:22.254Z,73.73
2019-02-28T06:54:51.373Z,77.43
2019-02-28T06:57:22.986Z,74.93
2019-02-28T06:59:52.757Z,89.40
2019-02-28T07:02:23.789Z,80.57
2019-02-28T07:04:54.959Z,75.60
2019-02-28T07:07:24.813Z,83.20
2019-02-28T07:09:54.608Z,78.37
2019-02-28T07:12:29.525Z,86.53
2019-02-28T07:14:59.162Z,83.73
2019-02-28T07:17:29.489Z,81.70
2019-02-28T07:20:02.067Z,90.67
2019-02-28T07:22:33.009Z,89.37
2019-02-28T07:25:03.087Z,83.10
2019-02-28T07:27:34.684Z,88.83
2019-02-28T07:30:07.800Z,80.83
2019-02-28T07:32:38.481Z,82.53
2019-02-28T07:35:09.229Z,89.47
2019-02-28T07:37:40.890Z,84.97
2019-02-28T07:40:16.381Z,84.93
2019-02-28T07:42:44.607Z,89.80
2019-02-28T07:45:14.834Z,78.10
2019-02-28T07:47:51.619Z,79.47
2019-02-28T07:50:18.824Z,82.17
2019-02-28T07:52:49.602Z,83.53
2019-02-28T07:55:21.012Z,84.47
2019-02-28T07:57:56.286Z,89.87
2019-02-28T08:00:25.502Z,83.30
2019-02-28T08:02:55.266Z,80.27
2019-02-28T08:05:29.899Z,80.93
2019-02-28T08:07:57.762Z,82.77
2019-02-28T08:10:30.965Z,81.67
2019-02-28T08:13:03.059Z,76.23
2019-02-28T08:15:36.082Z,80.93
2019-02-28T08:18:06.158Z,78.00
2019-02-28T08:20:36.236Z,79.13
2019-02-28T08:23:07.389Z,83.60
2019-02-28T08:25:39.714Z,80.43
2019-02-28T08:28:10.306Z,84.67
2019-02-28T08:30:41.451Z,80.03
2019-02-28T08:33:11.726Z,84.00
2019-02-28T08:35:44.138Z,84.63
2019-02-28T08:38:13.997Z,95.10
2019-02-28T08:40:44.002Z,80.77
2019-02-28T08:43:14.734Z,83.27
2019-02-28T08:45:45.450Z,83.57
2019-02-28T08:48:16.135Z,72.23
2019-02-28T08:50:47.085Z,81.60
2019-02-28T08:53:16.982Z,84.03
2019-02-28T08:55:47.774Z,81.43
2019-02-28T08:58:17.554Z,77.90
2019-02-28T09:00:48.207Z,83.07
2019-02-28T09:03:19.926Z,80.57
2019-02-28T09:05:49.661Z,84.20
2019-02-28T09:08:22.418Z,76.73
2019-02-28T09:10:53.758Z,77.07
2019-02-28T09:13:25.119Z,79.90
2019-02-28T09:15:55.216Z,73.03
2019-02-28T09:18:27.513Z,72.90
2019-02-28T09:20:57.269Z,76.67
2019-02-28T09:23:28.009Z,74.53
2019-02-28T09:25:58.654Z,75.13
2019-02-28T09:28:30.286Z,70.93
2019-02-28T09:31:01.335Z,76.00
2019-02-28T09:33:34.187Z,71.67
2019-02-28T09:36:04.094Z,72.33
2019-02-28T09:38:35.133Z,69.13
2019-02-28T09:41:06.886Z,73.50
2019-02-28T09:43:37.512Z,70.13
2019-02-28T09:46:09.001Z,68.33
2019-02-28T09:48:40.418Z,55.47
2019-02-28T09:51:11.249Z,75.97
2019-02-28T09:53:41.003Z,66.13
2019-02-28T09:56:12.650Z,70.93
2019-02-28T09:58:42.724Z,77.77
2019-02-28T10:01:13.502Z,72.83
2019-02-28T10:03:44.493Z,74.27
2019-02-28T10:06:16.416Z,72.03
2019-02-28T10:08:47.208Z,66.33
2019-02-28T10:11:18.012Z,64.97
2019-02-28T10:13:53.155Z,63.73
2019-02-28T10:16:22.901Z,65.17
2019-02-28T10:18:52.637Z,63.40
2019-02-28T10:21:23.290Z,62.83
2019-02-28T10:23:53.455Z,56.73
2019-02-28T10:26:26.198Z,50.87
2019-02-28T10:28:57.322Z,53.97
2019-02-28T10:31:35.378Z,53.80
2019-02-28T10:34:00.042Z,53.90
2019-02-28T10:36:30.209Z,57.80
2019-02-28T10:39:02.742Z,56.00
2019-02-28T10:41:33.849Z,54.97
2019-02-28T10:44:05.910Z,57.67
2019-02-28T10:46:37.073Z,60.67
2019-02-28T10:49:07.345Z,63.00
2019-02-28T10:51:37.266Z,61.20
2019-02-28T10:54:11.269Z,47.27
2019-02-28T10:56:40.769Z,55.00
2019-02-28T10:59:11.522Z,59.53
2019-02-28T11:01:42.738Z,59.37
2019-02-28T11:04:13.164Z,60.07
2019-02-28T11:06:43.993Z,56.67
2019-02-28T11:09:18.275Z,59.07
2019-02-28T11:11:49.421Z,56.30
2019-02-28T11:14:19.158Z,61.40
2019-02-28T11:16:50.162Z,57.07
2019-02-28T11:19:20.073Z,57.40
2019-02-28T11:21:52.523Z,59.27
2019-02-28T11:24:26.971Z,56.77
2019-02-28T11:26:56.537Z,56.37
2019-02-28T11:29:27.627Z,62.37
2019-02-28T11:31:59.092Z,58.80
2019-02-28T11:34:31.006Z,62.43
2019-02-28T11:37:01.589Z,62.43
2019-02-28T11:39:33.728Z,55.87
2019-02-28T11:42:04.557Z,56.53
2019-02-28T11:44:35.206Z,58.00
2019-02-28T11:47:08.411Z,55.83
2019-02-28T11:49:40.589Z,57.60
2019-02-28T11:52:11.245Z,59.13
2019-02-28T11:54:45.179Z,59.80
2019-02-28T11:57:14.322Z,64.47
2019-02-28T11:59:45.073Z,66.63
2019-02-28T12:02:15.130Z,67.03
2019-02-28T12:04:45.989Z,60.90
2019-02-28T12:07:15.765Z,69.60
2019-02-28T12:09:46.455Z,71.13
2019-02-28T12:12:17.471Z,76.60
2019-02-28T12:14:47.279Z,70.23
2019-02-28T12:17:18.205Z,69.33
2019-02-28T12:19:50.642Z,76.33
2019-02-28T12:22:23.849Z,85.00
2019-02-28T12:24:55.274Z,87.13
2019-02-28T12:27:27.600Z,80.97
2019-02-28T12:29:57.049Z,76.17
2019-02-28T12:32:27.934Z,79.40
2019-02-28T12:35:01.477Z,82.47
2019-02-28T12:37:32.106Z,84.50
2019-02-28T12:40:01.841Z,83.27
2019-02-28T12:42:34.618Z,85.33
2019-02-28T12:45:04.531Z,85.27
2019-02-28T12:47:38.634Z,83.53
2019-02-28T12:50:10.223Z,76.77
2019-02-28T12:52:48.992Z,81.57
2019-02-28T12:55:17.437Z,88.70
2019-02-28T12:57:47.210Z,77.80
2019-02-28T13:00:36.364Z,87.50
2019-02-28T13:03:09.093Z,77.17
2019-02-28T13:05:43.553Z,81.10
2019-02-28T13:08:14.702Z,65.40
2019-02-28T13:10:45.725Z,72.53
2019-02-28T13:13:16.559Z,65.10
2019-02-28T13:15:49.293Z,63.33
2019-02-28T13:18:19.124Z,63.03
2019-02-28T13:20:50.661Z,62.30
2019-02-28T13:23:20.360Z,66.30
2019-02-28T13:25:50.090Z,57.50
2019-02-28T13:28:22.107Z,59.90
2019-02-28T13:30:53.551Z,65.77
2019-02-28T13:33:24.557Z,56.07
2019-02-28T13:35:54.263Z,61.77
2019-02-28T13:38:24.425Z,61.47
2019-02-28T13:40:55.345Z,59.87
2019-02-28T13:43:25.373Z,58.47
2019-02-28T13:45:56.287Z,57.17
2019-02-28T13:48:33.052Z,64.30
2019-02-28T13:50:59.373Z,64.60
2019-02-28T13:53:31.808Z,71.77
2019-02-28T13:56:04.950Z,71.53
2019-02-28T13:58:34.174Z,70.60
2019-02-28T14:01:04.473Z,68.77
2019-02-28T14:03:35.539Z,72.53
2019-02-28T14:06:12.124Z,86.23
2019-02-28T14:08:42.048Z,77.50
2019-02-28T14:11:12.589Z,78.43
2019-02-28T14:13:42.037Z,80.00
2019-02-28T14:16:12.226Z,78.67
2019-02-28T14:18:45.446Z,85.63
2019-02-28T14:21:16.011Z,76.73
2019-02-28T14:23:47.862Z,73.33
2019-02-28T14:26:18.032Z,74.80
2019-02-28T14:28:50.239Z,70.00
2019-02-28T14:31:20.214Z,78.50
2019-02-28T14:33:51.481Z,76.53
2019-02-28T14:36:23.930Z,73.33
2019-02-28T14:38:56.201Z,68.27
2019-02-28T14:41:28.428Z,92.07
2019-02-28T14:43:58.058Z,67.43
2019-02-28T14:46:29.119Z,69.30
2019-02-28T14:49:00.159Z,72.03
2019-02-28T14:51:30.061Z,71.87
2019-02-28T14:54:00.182Z,65.07
2019-02-28T14:56:30.314Z,70.73
2019-02-28T14:59:00.445Z,63.60
2019-02-28T15:01:31.629Z,62.27
2019-02-28T15:04:02.708Z,63.60
2019-02-28T15:06:32.264Z,59.70
2019-02-28T15:09:02.002Z,60.33
2019-02-28T15:11:33.166Z,55.67
2019-02-28T15:14:05.665Z,64.10
2019-02-28T15:16:36.202Z,54.03
2019-02-28T15:19:06.926Z,53.20
2019-02-28T15:21:42.363Z,54.23
2019-02-28T15:24:10.510Z,49.20
2019-02-28T15:26:40.738Z,47.00
2019-02-28T15:29:12.281Z,47.80
2019-02-28T15:31:46.362Z,48.37
2019-02-28T15:34:16.937Z,41.70
2019-02-28T15:36:46.842Z,43.67
2019-02-28T15:39:17.184Z,44.87
2019-02-28T15:41:48.516Z,42.17
2019-02-28T15:44:20.386Z,39.20
2019-02-28T15:46:51.375Z,34.30
2019-02-28T15:49:23.314Z,40.20
2019-02-28T15:51:53.196Z,34.40
2019-02-28T15:54:25.278Z,33.77
2019-02-28T15:56:56.231Z,33.83
2019-02-28T15:59:28.042Z,32.80
2019-02-28T16:02:03.514Z,29.23
2019-02-28T16:04:33.717Z,29.90
2019-02-28T16:07:03.916Z,33.07
2019-02-28T16:09:38.061Z,28.63
2019-02-28T16:12:07.909Z,31.70
2019-02-28T16:14:39.838Z,30.43
2019-02-28T16:17:10.593Z,32.97
2019-02-28T16:19:41.205Z,33.33
2019-02-28T16:22:14.649Z,29.50
2019-02-28T16:24:44.448Z,36.40
2019-02-28T16:27:15.029Z,29.03
2019-02-28T16:29:45.198Z,29.23
2019-02-28T16:32:15.447Z,28.17
2019-02-28T16:34:45.389Z,33.13
2019-02-28T16:37:16.439Z,24.97
2019-02-28T16:39:50.926Z,36.40
2019-02-28T16:42:21.088Z,26.90
2019-02-28T16:44:52.158Z,28.30
2019-02-28T16:47:24.485Z,22.10
2019-02-28T16:49:55.158Z,30.47
2019-02-28T16:52:25.255Z,30.87
2019-02-28T16:54:57.064Z,23.47
2019-02-28T16:57:27.809Z,27.93
2019-02-28T16:59:58.830Z,24.50
2019-02-28T17:02:30.114Z,27.33
2019-02-28T17:05:01.236Z,19.97
2019-02-28T17:07:32.069Z,19.37
2019-02-28T17:10:04.508Z,20.60
2019-02-28T17:12:39.897Z,24.27
2019-02-28T17:15:14.976Z,24.87
2019-02-28T17:17:48.978Z,21.47
2019-02-28T17:20:19.968Z,19.80
2019-02-28T17:22:50.249Z,16.93
2019-02-28T17:25:21.636Z,15.00
2019-02-28T17:28:00.350Z,14.07
2019-02-28T17:30:36.163Z,15.03
2019-02-28T17:33:09.161Z,14.93
2019-02-28T17:35:40.700Z,17.53
2019-02-28T17:38:12.214Z,14.23
2019-02-28T17:40:42.453Z,13.00
2019-02-28T17:43:13.561Z,14.70
2019-02-28T17:45:47.237Z,16.77
2019-02-28T17:48:18.362Z,18.87
2019-02-28T17:50:50.968Z,16.93
2019-02-28T17:53:27.153Z,16.77
2019-02-28T17:56:10.057Z,18.10
2019-02-28T17:58:49.806Z,15.50
2019-02-28T18:01:28.754Z,18.27
2019-02-28T18:04:08.256Z,16.70
2019-02-28T18:06:43.714Z,18.53
2019-02-28T18:09:22.238Z,14.67
2019-02-28T18:12:05.887Z,19.40
2019-02-28T18:14:42.390Z,18.37
2019-02-28T18:17:33.417Z,13.83
2019-02-28T18:20:05.902Z,15.23
2019-02-28T18:23:06.903Z,20.03
2019-02-28T18:25:48.620Z,21.37
2019-02-28T18:28:32.562Z,16.53
2019-02-28T18:31:15.102Z,15.20
2019-02-28T18:33:46.250Z,19.20
2019-02-28T18:36:19.677Z,20.17
2019-02-28T18:38:49.941Z,17.63
2019-02-28T18:41:20.245Z,17.43
2019-02-28T18:43:53.496Z,19.00
2019-02-28T18:46:25.167Z,14.77
2019-02-28T18:48:55.793Z,90.27
2019-02-28T18:51:26.593Z,16.23
2019-02-28T18:53:55.845Z,15.77
2019-02-28T18:56:28.558Z,18.67
2019-02-28T18:59:01.365Z,17.90
2019-02-28T19:01:32.911Z,19.77
2019-02-28T19:04:03.186Z,19.47
2019-02-28T19:06:33.398Z,20.53
2019-02-28T19:09:07.012Z,19.27
2019-02-28T19:11:37.993Z,17.37
2019-02-28T19:14:08.675Z,16.27
2019-02-28T19:16:39.390Z,16.43
2019-02-28T19:19:09.180Z,17.97
2019-02-28T19:21:39.824Z,16.87
2019-02-28T19:24:10.617Z,19.53
2019-02-28T19:26:41.626Z,16.50
2019-02-28T19:29:12.397Z,12.60
2019-02-28T19:31:45.295Z,14.37
2019-02-28T19:34:17.373Z,11.13
2019-02-28T19:36:47.977Z,17.53
2019-02-28T19:39:19.988Z,15.67
2019-02-28T19:41:51.098Z,14.70
2019-02-28T19:44:22.719Z,15.53
2019-02-28T19:46:52.944Z,16.60
2019-02-28T19:49:24.800Z,13.33
2019-02-28T19:51:55.446Z,13.73
2019-02-28T19:54:26.084Z,16.47
2019-02-28T19:56:56.121Z,16.90
2019-02-28T19:59:26.317Z,10.83
2019-02-28T20:01:56.204Z,13.07
2019-02-28T20:04:26.310Z,11.77
2019-02-28T20:06:56.041Z,11.27
2019-02-28T20:09:28.359Z,14.03
2019-02-28T20:11:58.577Z,10.73
2019-02-28T20:14:28.956Z,15.40
2019-02-28T20:17:00.081Z,16.27
2019-02-28T20:19:29.889Z,17.50
2019-02-28T20:21:59.664Z,17.83
2019-02-28T20:24:30.301Z,17.80
2019-02-28T20:27:02.029Z,19.50
2019-02-28T20:29:32.963Z,18.00
2019-02-28T20:32:04.408Z,19.13
2019-02-28T20:34:35.530Z,14.07
2019-02-28T20:37:07.514Z,15.30
2019-02-28T20:39:38.085Z,17.87
2019-02-28T20:42:08.885Z,15.40
2019-02-28T20:44:39.918Z,19.23
2019-02-28T20:47:11.149Z,17.37
2019-02-28T20:49:41.958Z,22.23
2019-02-28T20:52:11.761Z,19.40
2019-02-28T20:54:41.509Z,19.50
2019-02-28T20:57:12.234Z,19.00
2019-02-28T20:59:44.601Z,19.13
2019-02-28T21:02:14.533Z,19.57
2019-02-28T21:04:46.093Z,21.73
2019-02-28T21:07:18.793Z,23.20
2019-02-28T21:09:49.983Z,17.17
2019-02-28T21:12:20.162Z,16.80
2019-02-28T21:14:50.098Z,18.33
2019-02-28T21:17:29.151Z,17.83
2019-02-28T21:19:53.966Z,19.53
2019-02-28T21:22:25.156Z,17.63
2019-02-28T21:24:57.993Z,20.10
2019-02-28T21:27:28.726Z,17.57
2019-02-28T21:29:59.704Z,19.17
2019-02-28T21:32:29.619Z,18.43
2019-02-28T21:35:00.307Z,16.60
2019-02-28T21:37:31.879Z,18.13
2019-02-28T21:40:01.666Z,19.13
2019-02-28T21:42:32.682Z,16.90
2019-02-28T21:45:02.586Z,20.60
2019-02-28T21:47:33.293Z,20.23
2019-02-28T21:50:06.443Z,20.13
2019-02-28T21:52:36.433Z,23.43
2019-02-28T21:55:08.718Z,24.40
2019-02-28T21:57:38.484Z,27.40
2019-02-28T22:00:27.373Z,19.53
2019-02-28T22:02:57.174Z,23.50
2019-02-28T22:05:27.870Z,24.70
2019-02-28T22:08:00.999Z,24.83
2019-02-28T22:10:31.301Z,23.17
2019-02-28T22:13:02.861Z,24.70
2019-02-28T22:15:33.140Z,28.83
2019-02-28T22:18:06.071Z,27.63
2019-02-28T22:20:36.897Z,21.77
2019-02-28T22:23:09.611Z,27.43
2019-02-28T22:25:39.773Z,22.57
2019-02-28T22:28:10.931Z,24.33
2019-02-28T22:30:43.654Z,20.13
2019-02-28T22:33:26.978Z,20.93
2019-02-28T22:36:04.929Z,27.23
2019-02-28T22:38:35.917Z,20.77
2019-02-28T22:41:06.681Z,22.93
2019-02-28T22:43:38.767Z,25.67
2019-02-28T22:46:09.441Z,23.83
2019-02-28T22:48:38.757Z,24.43
2019-02-28T22:51:09.937Z,21.53
2019-02-28T22:53:39.838Z,26.23
2019-02-28T22:56:09.921Z,26.93
2019-02-28T22:58:40.109Z,30.33
2019-02-28T23:01:14.781Z,25.37
2019-02-28T23:03:44.585Z,27.37
2019-02-28T23:06:15.299Z,21.43
2019-02-28T23:08:47.574Z,24.17
2019-02-28T23:11:18.414Z,23.97
2019-02-28T23:13:49.423Z,28.07
2019-02-28T23:16:20.506Z,25.67
2019-02-28T23:18:53.006Z,23.77
2019-02-28T23:21:24.041Z,25.13
2019-02-28T23:23:56.138Z,26.57
2019-02-28T23:26:27.217Z,22.23
2019-02-28T23:28:58.574Z,20.97
2019-02-28T23:31:32.847Z,20.50
2019-02-28T23:34:05.005Z,19.40
2019-02-28T23:36:36.062Z,20.30
2019-02-28T23:39:09.154Z,20.40
2019-02-28T23:41:41.498Z,20.67
2019-02-28T23:44:12.377Z,16.90
2019-02-28T23:46:43.025Z,16.43
2019-02-28T23:49:13.179Z,17.27
2019-02-28T23:51:43.045Z,19.03
2019-02-28T23:54:12.866Z,15.93
2019-02-28T23:56:43.569Z,19.27
2019-02-28T23:59:14.540Z,18.83
